Terminal Aerodrome Forecast
Issued by NWS

Home | Current Version | Previous Version | Text Only | Print | Product List | Glossary On
Versions: 1 2 3 4 5 6 7 8 9 10 11 12 13 14 15 16 17 18
000
FTUS43 KMPX 230400 AAA
TAFRWF
TAF AMD
KRWF 230434Z 2305/2324 19008KT 3SM BR OVC006
     FM231200 26007KT 4SM BR SCT005 OVC050
     FM231600 31009KT P6SM BKN120=

USA.gov is the U.S. government's official web portal to all federal, state and local government web resources and services.